createdAt,value
2018-07-12T00:00:01.250Z,18.4
2018-07-12T00:20:00.433Z,16.6
2018-07-12T00:40:00.712Z,14.6
2018-07-12T01:00:00.859Z,16.0
2018-07-12T01:20:01.120Z,15.8
2018-07-12T01:40:01.258Z,15.4
2018-07-12T02:00:00.451Z,15.4
2018-07-12T02:20:00.669Z,17.6
2018-07-12T02:40:00.983Z,18.0
2018-07-12T03:00:01.146Z,17.8
2018-07-12T03:20:01.393Z,16.0
2018-07-12T03:40:00.533Z,19.6
2018-07-12T04:00:00.745Z,19.0
2018-07-12T04:20:00.888Z,20.8
2018-07-12T04:40:01.283Z,20.6
2018-07-12T05:00:00.474Z,21.6
2018-07-12T05:20:00.547Z,22.0
2018-07-12T05:40:00.879Z,23.4
2018-07-12T05:45:00.790Z,23.1
2018-07-12T05:50:00.859Z,22.5
2018-07-12T05:55:00.772Z,21.6
2018-07-12T06:00:00.832Z,21.2
2018-07-12T06:05:00.776Z,20.2
2018-07-12T06:10:00.868Z,19.3
2018-07-12T06:15:00.809Z,17.9
2018-07-12T06:20:00.871Z,17.9
2018-07-12T06:25:00.802Z,17.4
2018-07-12T06:30:01.045Z,16.4
2018-07-12T06:35:00.824Z,15.9
2018-07-12T06:40:01.941Z,15.9
2018-07-12T06:45:00.834Z,15.4
2018-07-12T06:50:00.901Z,14.7
2018-07-12T06:55:00.817Z,15.4
2018-07-12T07:00:00.945Z,15.5
2018-07-12T07:05:00.820Z,15.3
2018-07-12T07:10:00.954Z,14.8
2018-07-12T07:15:00.821Z,15.0
2018-07-12T07:20:00.918Z,14.7
2018-07-12T07:25:00.827Z,14.8
2018-07-12T07:30:00.892Z,15.0
2018-07-12T07:35:00.828Z,14.8
2018-07-12T07:45:00.961Z,14.4
2018-07-12T07:50:00.906Z,13.8
2018-07-12T07:55:00.846Z,13.9
2018-07-12T08:00:00.884Z,14.5
2018-07-12T08:05:00.816Z,14.6
2018-07-12T08:10:00.882Z,15.1
2018-07-12T08:15:00.830Z,14.7
2018-07-12T08:20:00.955Z,14.4
2018-07-12T08:25:00.831Z,13.8
2018-07-12T08:30:01.245Z,13.6
2018-07-12T08:35:00.828Z,13.0
2018-07-12T08:45:00.904Z,13.2
2018-07-12T08:50:00.963Z,13.0
2018-07-12T08:55:00.837Z,12.4
2018-07-12T09:00:00.848Z,12.0
2018-07-12T09:10:00.844Z,11.3
2018-07-12T09:15:00.850Z,11.2
2018-07-12T09:20:00.974Z,11.2
2018-07-12T09:25:00.847Z,11.0
2018-07-12T09:30:00.849Z,11.0
2018-07-12T09:40:00.859Z,10.6
2018-07-12T09:45:00.854Z,10.6
2018-07-12T09:50:00.990Z,10.6
2018-07-12T09:55:00.870Z,10.2
2018-07-12T10:00:00.864Z,10.2
2018-07-12T10:05:00.861Z,10.7
2018-07-12T10:10:00.866Z,10.9
2018-07-12T10:15:00.852Z,11.2
2018-07-12T10:25:00.934Z,11.5
2018-07-12T10:30:01.207Z,11.0
2018-07-12T10:35:00.945Z,11.2
2018-07-12T10:45:00.968Z,11.8
2018-07-12T10:50:00.916Z,11.9
2018-07-12T10:55:00.905Z,12.3
2018-07-12T11:00:00.912Z,11.8
2018-07-12T11:10:00.980Z,11.7
2018-07-12T11:15:00.892Z,11.2
2018-07-12T11:20:00.896Z,11.4
2018-07-12T11:25:00.928Z,11.6
2018-07-12T11:30:00.974Z,11.4
2018-07-12T11:35:00.902Z,11.1
2018-07-12T11:40:00.964Z,11.6
2018-07-12T11:45:00.934Z,10.8
2018-07-12T12:00:01.039Z,10.5
2018-07-12T12:05:00.878Z,10.0
2018-07-12T12:10:00.981Z,10.2
2018-07-12T12:15:00.914Z,9.9
2018-07-12T12:20:01.051Z,9.8
2018-07-12T12:25:00.924Z,9.8
2018-07-12T12:30:01.013Z,9.6
2018-07-12T12:35:00.929Z,9.2
2018-07-12T12:40:00.997Z,9.0
2018-07-12T12:45:00.932Z,8.6
2018-07-12T12:50:01.083Z,8.8
2018-07-12T13:00:01.192Z,9.6
2018-07-12T13:05:00.937Z,10.1
2018-07-12T13:15:01.073Z,10.3
2018-07-12T13:20:01.073Z,10.8
2018-07-12T13:25:00.919Z,10.7
2018-07-12T13:30:01.085Z,10.8
2018-07-12T13:40:01.022Z,11.2
2018-07-12T13:45:00.954Z,11.4
2018-07-12T13:50:01.021Z,11.7
2018-07-12T13:55:00.965Z,11.7
2018-07-12T14:00:01.096Z,12.0
2018-07-12T14:05:01.111Z,12.3
2018-07-12T14:10:01.028Z,12.5
2018-07-12T14:15:00.967Z,12.3
2018-07-12T14:20:01.152Z,12.6
2018-07-12T14:25:00.997Z,13.0
2018-07-12T14:30:01.069Z,12.5
2018-07-12T14:35:00.999Z,12.2
2018-07-12T14:40:01.003Z,12.2
2018-07-12T14:45:01.007Z,11.6
2018-07-12T14:50:01.024Z,10.6
2018-07-12T14:55:01.021Z,10.8
2018-07-12T15:00:01.151Z,10.6
2018-07-12T15:05:01.013Z,10.4
2018-07-12T15:10:01.097Z,10.2
2018-07-12T15:15:01.024Z,10.2
2018-07-12T15:20:01.002Z,10.0
2018-07-12T15:30:01.008Z,9.6
2018-07-12T15:35:01.031Z,9.8
2018-07-12T15:40:01.108Z,10.0
2018-07-12T15:45:01.041Z,10.0
2018-07-12T15:55:01.143Z,9.8
2018-07-12T16:00:01.091Z,10.2
2018-07-12T16:05:01.054Z,10.4
2018-07-12T16:10:01.061Z,10.7
2018-07-12T16:15:01.065Z,10.2
2018-07-12T16:20:01.216Z,10.2
2018-07-12T16:30:01.325Z,9.7
2018-07-12T16:35:01.135Z,9.4
2018-07-12T16:40:01.071Z,9.7
2018-07-12T16:45:01.070Z,10.2
2018-07-12T16:50:01.134Z,10.6
2018-07-12T16:55:01.072Z,11.2
2018-07-12T17:00:01.085Z,11.9
2018-07-12T17:05:01.094Z,12.3
2018-07-12T17:10:01.143Z,12.4
2018-07-12T17:15:04.448Z,12.6
2018-07-12T17:20:01.168Z,12.5
2018-07-12T17:25:01.067Z,12.4
2018-07-12T17:30:01.131Z,12.3
2018-07-12T17:35:01.195Z,12.5
2018-07-12T17:40:01.202Z,12.3
2018-07-12T17:45:01.067Z,12.7
2018-07-12T17:50:01.132Z,12.7
2018-07-12T17:55:01.083Z,13.3
2018-07-12T18:00:01.154Z,13.6
2018-07-12T18:05:01.107Z,13.7
2018-07-12T18:10:01.085Z,12.9
2018-07-12T18:15:01.085Z,12.6
2018-07-12T18:20:01.160Z,12.6
2018-07-12T18:25:01.082Z,12.2
2018-07-12T18:30:01.152Z,12.4
2018-07-12T18:35:01.089Z,13.2
2018-07-12T18:40:01.237Z,14.1
2018-07-12T18:45:01.160Z,14.2
2018-07-12T18:50:01.165Z,15.5
2018-07-12T18:55:01.113Z,15.5
2018-07-12T19:00:01.167Z,15.9
2018-07-12T19:05:01.108Z,16.6
2018-07-12T19:10:01.101Z,17.6
2018-07-12T19:15:01.316Z,17.3
2018-07-12T19:20:01.113Z,17.9
2018-07-12T19:25:01.113Z,18.6
2018-07-12T19:30:01.112Z,18.2
2018-07-12T19:35:01.470Z,18.0
2018-07-12T19:40:01.225Z,18.4
2018-07-12T19:45:01.119Z,19.2
2018-07-12T19:50:01.223Z,19.7
2018-07-12T19:55:01.152Z,20.2
2018-07-12T20:00:01.280Z,21.0
2018-07-12T20:05:01.169Z,21.6
2018-07-12T20:10:01.157Z,21.3
2018-07-12T20:15:01.132Z,21.4
2018-07-12T20:20:01.263Z,22.1
2018-07-12T20:25:01.140Z,22.4
2018-07-12T20:30:01.208Z,22.4
2018-07-12T20:35:01.139Z,22.9
2018-07-12T20:40:01.136Z,23.3
2018-07-12T20:45:01.150Z,23.2
2018-07-12T20:50:01.277Z,23.1
2018-07-12T20:55:01.233Z,23.6
2018-07-12T21:00:01.275Z,24.7
2018-07-12T21:05:01.172Z,24.6
2018-07-12T21:10:01.152Z,25.1
2018-07-12T21:15:01.163Z,25.8
2018-07-12T21:20:01.293Z,25.9
2018-07-12T21:25:01.167Z,25.8
2018-07-12T21:30:01.248Z,26.6
2018-07-12T21:35:01.182Z,27.3
2018-07-12T21:40:06.330Z,28.5
2018-07-12T21:45:01.206Z,29.5
2018-07-12T21:50:01.305Z,30.1
2018-07-12T21:55:01.182Z,29.9
2018-07-12T22:00:01.256Z,30.1
2018-07-12T22:05:01.210Z,31.2
2018-07-12T22:10:01.250Z,30.8
2018-07-12T22:15:01.193Z,30.8
2018-07-12T22:20:01.308Z,32.8
2018-07-12T22:25:01.209Z,34.1
2018-07-12T22:30:01.262Z,33.3
2018-07-12T22:35:01.209Z,33.9
2018-07-12T22:45:01.271Z,32.8
2018-07-12T22:50:01.331Z,32.9
2018-07-12T22:55:01.230Z,32.6
2018-07-12T23:00:01.295Z,32.7
2018-07-12T23:05:01.234Z,33.5
2018-07-12T23:10:01.256Z,34.0
2018-07-12T23:15:01.247Z,33.8
2018-07-12T23:20:01.427Z,33.9
2018-07-12T23:25:01.248Z,33.8
2018-07-12T23:30:06.311Z,33.9
2018-07-12T23:35:01.249Z,34.0
2018-07-12T23:40:01.229Z,33.5
2018-07-12T23:45:01.227Z,34.1
2018-07-12T23:50:01.360Z,33.8
2018-07-12T23:55:06.304Z,33.8
